Aspen, Colorado
Current Conditions -  °F | °C
As of 2:53 AM on Thursday 29 Jan 2015 (Local Time) from KASE Reporting Station
Clear Clear  
Wind Chill: 22°   Ceiling: Unl
Heat Index: 28°   Visibility: 10mi
Dew Point: 19°   Wind: 6mph
Humidity: 69%   Direction: 200°SSW
Pressure: 30.36"   Gusts: NA
Location:  39.19°N, 106.81°W
Report Text: KASE 290953Z AUTO 20005KT 10SM CLR M02/M07 A3036 RMK AO2 SLP252 T10221072
Loading
Personal Weather Stations






























Interactive Weather Map New forecast layout! Learn more

10-Day Weather Forecast

Advertisements
Track Severe Weather on mobile